createdAt,value
2023-03-21T00:00:06.833Z,16.60
2023-03-21T00:01:06.805Z,19.70
2023-03-21T00:02:06.847Z,18.60
2023-03-21T00:03:06.752Z,18.70
2023-03-21T00:04:06.772Z,19.90
2023-03-21T00:05:15.537Z,17.70
2023-03-21T00:06:06.683Z,18.20
2023-03-21T00:07:06.662Z,17.20
2023-03-21T00:08:06.662Z,19.60
2023-03-21T00:09:06.601Z,17.10
2023-03-21T00:10:15.367Z,19.60
2023-03-21T00:11:06.548Z,17.30
2023-03-21T00:12:06.534Z,19.30
2023-03-21T00:13:06.511Z,19.40
2023-03-21T00:14:06.499Z,19.80
2023-03-21T00:15:06.450Z,18.60
2023-03-21T00:16:12.935Z,21.90
2023-03-21T00:17:06.403Z,21.50
2023-03-21T00:18:06.380Z,19.00
2023-03-21T00:19:06.483Z,19.50
2023-03-21T00:20:06.332Z,19.40
2023-03-21T00:21:35.916Z,20.70
2023-03-21T00:22:08.285Z,23.80
2023-03-21T00:23:06.251Z,21.10
2023-03-21T00:24:06.253Z,21.30
2023-03-21T00:25:06.205Z,21.10
2023-03-21T00:26:06.190Z,22.20
2023-03-21T00:27:50.106Z,21.60
2023-03-21T00:28:08.532Z,23.60
2023-03-21T00:29:06.100Z,24.30
2023-03-21T00:30:06.084Z,24.10
2023-03-21T00:31:06.056Z,22.20
2023-03-21T00:32:06.029Z,24.10
2023-03-21T00:33:19.834Z,21.70
2023-03-21T00:34:05.989Z,22.70
2023-03-21T00:35:38.280Z,25.70
2023-03-21T00:36:06.609Z,23.70
2023-03-21T00:37:05.897Z,24.70
2023-03-21T00:38:05.874Z,23.70
2023-03-21T00:39:05.849Z,21.40
2023-03-21T00:40:08.651Z,27.40
2023-03-21T00:41:18.815Z,24.50
2023-03-21T00:42:05.770Z,21.40
2023-03-21T00:43:05.750Z,24.30
2023-03-21T00:44:05.726Z,22.70
2023-03-21T00:45:05.702Z,21.50
2023-03-21T00:46:05.677Z,26.60
2023-03-21T00:47:07.769Z,21.10
2023-03-21T00:48:05.725Z,23.60
2023-03-21T00:49:05.596Z,23.40
2023-03-21T00:50:05.573Z,26.40
2023-03-21T00:51:05.559Z,21.30
2023-03-21T00:52:15.815Z,26.20
2023-03-21T00:53:05.497Z,22.70
2023-03-21T00:54:05.482Z,25.50
2023-03-21T00:55:05.451Z,21.60
2023-03-21T00:56:05.443Z,20.40
2023-03-21T00:57:05.400Z,24.70
2023-03-21T00:58:05.373Z,28.00
2023-03-21T00:59:05.362Z,22.90
2023-03-21T01:00:05.321Z,22.40
2023-03-21T01:01:05.359Z,23.50
2023-03-21T01:02:05.325Z,22.30
2023-03-21T01:03:17.509Z,19.50
2023-03-21T01:04:05.264Z,23.90
2023-03-21T01:05:05.227Z,25.30
2023-03-21T01:06:05.171Z,24.40
2023-03-21T01:07:05.152Z,23.70
2023-03-21T01:08:20.706Z,25.80
2023-03-21T01:09:05.102Z,27.40
2023-03-21T01:10:05.082Z,23.00
2023-03-21T01:11:05.060Z,25.60
2023-03-21T01:12:05.038Z,23.20
2023-03-21T01:13:04.998Z,24.40
2023-03-21T01:14:20.810Z,24.00
2023-03-21T01:15:04.947Z,26.60
2023-03-21T01:16:04.995Z,26.80
2023-03-21T01:17:04.904Z,24.30
2023-03-21T01:18:04.867Z,26.40
2023-03-21T01:19:07.025Z,24.30
2023-03-21T01:20:04.821Z,24.60
2023-03-21T01:21:04.803Z,23.50
2023-03-21T01:22:04.768Z,24.90
2023-03-21T01:23:04.745Z,26.80
2023-03-21T01:24:04.720Z,23.50
2023-03-21T01:25:21.138Z,25.60
2023-03-21T01:26:04.670Z,24.00
2023-03-21T01:27:04.644Z,28.70
2023-03-21T01:28:04.644Z,26.10
2023-03-21T01:29:04.597Z,26.60
2023-03-21T01:30:11.215Z,27.60
2023-03-21T01:31:04.548Z,24.40
2023-03-21T01:32:04.531Z,28.70
2023-03-21T01:33:04.501Z,26.80
2023-03-21T01:34:04.475Z,27.20
2023-03-21T01:35:04.446Z,27.10
2023-03-21T01:36:12.844Z,29.90
2023-03-21T01:37:04.458Z,27.20
2023-03-21T01:38:04.368Z,26.50
2023-03-21T01:39:04.352Z,25.80
2023-03-21T01:40:04.314Z,26.70
2023-03-21T01:41:14.004Z,27.20
2023-03-21T01:42:04.264Z,25.90
2023-03-21T01:43:04.243Z,28.00
2023-03-21T01:44:04.240Z,28.20
2023-03-21T01:45:04.202Z,29.10
2023-03-21T01:46:04.189Z,30.00
2023-03-21T01:47:11.200Z,29.00
2023-03-21T01:48:04.125Z,29.90
2023-03-21T01:49:04.091Z,28.30
2023-03-21T01:50:04.059Z,31.00
2023-03-21T01:51:04.054Z,32.10
2023-03-21T01:52:12.797Z,33.90
2023-03-21T01:53:03.991Z,31.60
2023-03-21T01:54:03.966Z,32.10
2023-03-21T01:55:03.945Z,31.50
2023-03-21T01:56:03.925Z,31.80
2023-03-21T01:57:03.894Z,32.30
2023-03-21T01:58:07.097Z,37.30
2023-03-21T01:59:03.854Z,32.00
2023-03-21T02:00:03.835Z,35.40
2023-03-21T02:01:03.833Z,32.80
2023-03-21T02:02:03.761Z,33.30
2023-03-21T02:03:13.643Z,30.90
2023-03-21T02:04:03.863Z,31.00
2023-03-21T02:05:03.696Z,32.90
2023-03-21T02:06:03.666Z,31.90
2023-03-21T02:07:03.655Z,32.80
2023-03-21T02:08:03.612Z,29.50
2023-03-21T02:09:03.593Z,29.90
2023-03-21T02:10:03.576Z,32.00
2023-03-21T02:11:03.541Z,31.20
2023-03-21T02:12:03.518Z,30.50
2023-03-21T02:13:03.493Z,29.60
2023-03-21T02:14:06.538Z,35.30
2023-03-21T02:15:03.443Z,29.90
2023-03-21T02:16:03.433Z,29.40
2023-03-21T02:17:03.389Z,31.60
2023-03-21T02:18:03.361Z,31.00
2023-03-21T02:19:03.351Z,32.50
2023-03-21T02:20:03.319Z,30.40
2023-03-21T02:21:03.298Z,28.80
2023-03-21T02:22:03.264Z,29.90
2023-03-21T02:23:03.239Z,27.80
2023-03-21T02:24:03.227Z,28.80
2023-03-21T02:25:08.319Z,29.80
2023-03-21T02:26:03.161Z,29.90
2023-03-21T02:27:04.677Z,29.30
2023-03-21T02:28:03.130Z,31.00
2023-03-21T02:29:03.094Z,29.40
2023-03-21T02:30:03.080Z,28.70
2023-03-21T02:31:03.101Z,30.90
2023-03-21T02:32:15.139Z,32.10
2023-03-21T02:33:02.996Z,28.80
2023-03-21T02:34:02.964Z,29.00
2023-03-21T02:35:02.952Z,27.90
2023-03-21T02:36:11.930Z,31.90
2023-03-21T02:37:02.889Z,30.40
2023-03-21T02:38:02.864Z,30.30
2023-03-21T02:39:02.852Z,26.30
2023-03-21T02:40:02.818Z,29.80
2023-03-21T02:41:05.333Z,32.30
2023-03-21T02:42:02.762Z,29.00
2023-03-21T02:43:03.059Z,33.70
2023-03-21T02:44:02.720Z,29.60
2023-03-21T02:45:02.706Z,26.90
2023-03-21T02:46:02.819Z,27.50
2023-03-21T02:47:06.307Z,30.70
2023-03-21T02:48:03.013Z,29.60
2023-03-21T02:49:02.616Z,27.00
2023-03-21T02:50:02.563Z,30.60
2023-03-21T02:51:02.556Z,30.70
2023-03-21T02:52:12.283Z,30.80
2023-03-21T02:53:02.495Z,30.30
2023-03-21T02:54:27.849Z,30.40
2023-03-21T02:55:02.442Z,30.30
2023-03-21T02:56:02.411Z,28.60
2023-03-21T02:57:02.393Z,28.20
2023-03-21T02:58:12.384Z,29.00
2023-03-21T02:59:02.380Z,30.60
2023-03-21T03:00:10.642Z,30.60
2023-03-21T03:01:02.299Z,34.10
2023-03-21T03:02:02.267Z,31.20
2023-03-21T03:03:09.939Z,31.80
2023-03-21T03:04:02.314Z,31.40
2023-03-21T03:05:06.456Z,29.60
2023-03-21T03:06:02.177Z,30.20
2023-03-21T03:07:02.141Z,27.60
2023-03-21T03:08:02.133Z,26.90
2023-03-21T03:09:03.172Z,31.00
2023-03-21T03:10:02.070Z,27.00
2023-03-21T03:11:02.045Z,30.80
2023-03-21T03:12:02.017Z,27.50
2023-03-21T03:13:02.003Z,31.60
2023-03-21T03:14:15.559Z,25.00
2023-03-21T03:15:03.972Z,31.60
2023-03-21T03:16:02.010Z,29.10
2023-03-21T03:17:01.894Z,31.40
2023-03-21T03:18:01.873Z,29.30
2023-03-21T03:19:01.849Z,25.20
2023-03-21T03:20:15.209Z,27.60
2023-03-21T03:21:01.797Z,26.40
2023-03-21T03:22:01.767Z,28.90
2023-03-21T03:23:01.750Z,24.20
2023-03-21T03:24:01.740Z,26.00
2023-03-21T03:25:09.645Z,26.10
2023-03-21T03:26:01.667Z,28.00
2023-03-21T03:27:01.643Z,28.50
2023-03-21T03:28:01.622Z,29.30
2023-03-21T03:29:01.598Z,26.70
2023-03-21T03:30:01.571Z,26.10
2023-03-21T03:31:09.060Z,24.70
2023-03-21T03:32:01.619Z,27.50
2023-03-21T03:33:01.496Z,26.70
2023-03-21T03:34:01.470Z,23.90
2023-03-21T03:35:01.440Z,27.40
2023-03-21T03:36:06.770Z,25.90
2023-03-21T03:37:01.430Z,25.20
2023-03-21T03:38:01.365Z,25.50
2023-03-21T03:39:01.339Z,26.10
2023-03-21T03:40:01.311Z,28.00
2023-03-21T03:41:01.291Z,24.30
2023-03-21T03:42:15.372Z,23.80
2023-03-21T03:43:01.249Z,24.20
2023-03-21T03:44:01.231Z,25.10
2023-03-21T03:45:01.207Z,26.70
2023-03-21T03:46:01.159Z,25.40
2023-03-21T03:47:01.147Z,27.40
2023-03-21T03:48:01.167Z,24.70
2023-03-21T03:49:01.088Z,25.30
2023-03-21T03:50:01.070Z,26.50
2023-03-21T03:51:01.040Z,22.80
2023-03-21T03:52:01.029Z,27.60
2023-03-21T03:53:02.970Z,25.90
2023-03-21T03:54:00.971Z,28.90
2023-03-21T03:55:00.947Z,26.70
2023-03-21T03:56:00.919Z,26.50
2023-03-21T03:57:00.901Z,30.60
2023-03-21T03:58:02.020Z,25.80
2023-03-21T03:59:00.857Z,23.20
2023-03-21T04:00:00.816Z,27.00
2023-03-21T04:01:00.793Z,25.60
2023-03-21T04:02:00.813Z,25.90
2023-03-21T04:03:00.893Z,30.00
2023-03-21T04:04:12.347Z,24.50
2023-03-21T04:05:00.690Z,26.20
2023-03-21T04:06:00.666Z,24.50
2023-03-21T04:07:00.645Z,24.90
2023-03-21T04:08:00.664Z,21.90
2023-03-21T04:09:03.488Z,25.50
2023-03-21T04:10:00.566Z,24.40
2023-03-21T04:11:00.548Z,24.60
2023-03-21T04:12:00.519Z,21.60
2023-03-21T04:13:00.494Z,23.80
2023-03-21T04:14:00.469Z,26.90
2023-03-21T04:15:10.821Z,27.20
2023-03-21T04:16:00.501Z,21.60
2023-03-21T04:17:00.398Z,24.40
2023-03-21T04:18:00.369Z,21.30
2023-03-21T04:19:00.346Z,23.30
2023-03-21T04:20:10.934Z,24.70
2023-03-21T04:21:00.303Z,21.20
2023-03-21T04:22:00.266Z,20.90
2023-03-21T04:23:00.247Z,21.40
2023-03-21T04:24:00.242Z,22.40
2023-03-21T04:25:00.633Z,24.00
2023-03-21T04:26:00.171Z,23.60
2023-03-21T04:27:00.171Z,23.80
2023-03-21T04:28:00.154Z,24.90
2023-03-21T04:29:00.130Z,22.00
2023-03-21T04:30:00.097Z,20.70
2023-03-21T04:31:05.224Z,25.40
2023-03-21T04:32:00.152Z,22.00
2023-03-21T04:32:59.998Z,22.10
2023-03-21T04:33:59.969Z,24.30
2023-03-21T04:34:59.943Z,23.50
2023-03-21T04:35:59.921Z,20.90
2023-03-21T04:36:59.897Z,25.90
2023-03-21T04:37:59.864Z,21.40
2023-03-21T04:38:59.844Z,23.20
2023-03-21T04:39:59.840Z,20.80
2023-03-21T04:40:59.797Z,23.30
2023-03-21T04:41:59.764Z,25.80
2023-03-21T04:42:59.749Z,20.30
2023-03-21T04:43:59.725Z,23.10
2023-03-21T04:44:59.697Z,21.90
2023-03-21T04:45:59.739Z,24.20
2023-03-21T04:46:59.648Z,26.80
2023-03-21T04:47:59.648Z,23.60
2023-03-21T04:48:59.594Z,25.30
2023-03-21T04:49:59.565Z,22.60
2023-03-21T04:50:59.542Z,22.80
2023-03-21T04:51:59.512Z,22.20
2023-03-21T04:52:59.494Z,22.20
2023-03-21T04:53:59.476Z,20.20
2023-03-21T04:54:59.453Z,25.50
2023-03-21T04:55:59.445Z,23.60
2023-03-21T04:56:59.398Z,22.80
2023-03-21T04:57:59.385Z,24.00
2023-03-21T04:58:59.342Z,24.80
2023-03-21T04:59:59.318Z,23.60
2023-03-21T05:00:59.346Z,24.70
2023-03-21T05:01:59.278Z,23.80
2023-03-21T05:02:59.247Z,22.60
2023-03-21T05:03:59.316Z,23.20
2023-03-21T05:04:59.192Z,22.20
2023-03-21T05:05:59.165Z,25.20
2023-03-21T05:06:59.153Z,23.70
2023-03-21T05:07:59.128Z,19.90
2023-03-21T05:08:59.091Z,23.10
2023-03-21T05:10:01.257Z,25.50
2023-03-21T05:10:59.038Z,26.40
2023-03-21T05:11:59.040Z,25.60
2023-03-21T05:12:59.012Z,24.10
2023-03-21T05:13:58.969Z,24.00
2023-03-21T05:14:58.948Z,28.20
2023-03-21T05:15:58.917Z,23.10
2023-03-21T05:16:58.949Z,24.50
2023-03-21T05:17:58.871Z,23.40
2023-03-21T05:18:58.842Z,20.90
2023-03-21T05:19:58.821Z,23.60
2023-03-21T05:20:58.794Z,21.60
2023-03-21T05:21:58.772Z,24.20
2023-03-21T05:22:58.744Z,22.80
2023-03-21T05:23:58.734Z,22.30
2023-03-21T05:24:58.690Z,22.40
2023-03-21T05:25:58.672Z,21.70
2023-03-21T05:27:01.205Z,25.10
2023-03-21T05:27:58.642Z,25.50
2023-03-21T05:28:58.589Z,24.20
2023-03-21T05:29:58.573Z,22.60
2023-03-21T05:30:58.654Z,23.90
2023-03-21T05:31:58.539Z,25.30
2023-03-21T05:32:58.504Z,24.60
2023-03-21T05:33:58.478Z,22.60
2023-03-21T05:34:58.448Z,21.10
2023-03-21T05:35:58.471Z,20.90
2023-03-21T05:36:58.396Z,21.10
2023-03-21T05:37:58.372Z,22.70
2023-03-21T05:38:58.343Z,24.90
2023-03-21T05:39:58.326Z,20.10
2023-03-21T05:40:58.296Z,22.60
2023-03-21T05:41:58.275Z,24.40
2023-03-21T05:42:58.241Z,22.30
2023-03-21T05:43:58.242Z,22.00
2023-03-21T05:44:58.198Z,23.40
2023-03-21T05:45:58.248Z,21.30
2023-03-21T05:46:58.144Z,24.20
2023-03-21T05:47:58.179Z,21.40
2023-03-21T05:48:58.092Z,22.60
2023-03-21T05:49:58.073Z,21.70
2023-03-21T05:50:58.044Z,20.40
2023-03-21T05:51:58.023Z,23.50
2023-03-21T05:52:58.002Z,25.50
2023-03-21T05:53:57.978Z,22.00
2023-03-21T05:54:57.950Z,21.10
2023-03-21T05:55:57.934Z,21.20
2023-03-21T05:56:57.898Z,19.90
2023-03-21T05:57:57.879Z,22.20
2023-03-21T05:58:57.854Z,22.00
2023-03-21T05:59:57.851Z,23.50
2023-03-21T06:00:57.800Z,21.50
2023-03-21T06:01:57.786Z,21.70
2023-03-21T06:02:57.800Z,21.40
2023-03-21T06:03:57.764Z,19.50
2023-03-21T06:04:57.700Z,19.90
2023-03-21T06:05:57.680Z,19.70
2023-03-21T06:06:57.652Z,19.60
2023-03-21T06:07:57.626Z,19.80
2023-03-21T06:08:57.599Z,23.30
2023-03-21T06:09:57.612Z,21.20
2023-03-21T06:10:57.555Z,21.00
2023-03-21T06:11:57.525Z,20.70
2023-03-21T06:12:57.498Z,23.80
2023-03-21T06:13:57.478Z,22.90
2023-03-21T06:14:57.456Z,23.20
2023-03-21T06:15:57.585Z,22.10
2023-03-21T06:16:57.402Z,20.00
2023-03-21T06:17:57.383Z,20.20
2023-03-21T06:18:57.351Z,21.20
2023-03-21T06:19:57.327Z,23.50
2023-03-21T06:20:57.305Z,20.80
2023-03-21T06:21:57.281Z,28.50
2023-03-21T06:22:57.257Z,19.40
2023-03-21T06:23:57.249Z,21.70
2023-03-21T06:24:57.206Z,19.40
2023-03-21T06:25:57.183Z,21.50
2023-03-21T06:26:57.153Z,24.00
2023-03-21T06:27:57.133Z,23.50
2023-03-21T06:28:57.109Z,21.90
2023-03-21T06:29:57.077Z,18.60
2023-03-21T06:30:57.109Z,22.20
2023-03-21T06:31:57.063Z,26.20
2023-03-21T06:32:57.005Z,22.60
2023-03-21T06:33:56.977Z,20.30
2023-03-21T06:34:56.950Z,22.40
2023-03-21T06:35:57.001Z,26.60
2023-03-21T06:36:57.902Z,24.70
2023-03-21T06:37:56.880Z,22.00
2023-03-21T06:38:56.851Z,21.40
2023-03-21T06:39:56.829Z,25.70
2023-03-21T06:40:56.801Z,21.10
2023-03-21T06:41:56.776Z,21.70
2023-03-21T06:42:56.753Z,25.50
2023-03-21T06:43:56.728Z,25.20
2023-03-21T06:44:56.696Z,22.30
2023-03-21T06:45:56.677Z,22.50
2023-03-21T06:46:56.712Z,23.60
2023-03-21T06:47:56.736Z,20.40
2023-03-21T06:48:56.596Z,22.50
2023-03-21T06:49:56.586Z,23.50
2023-03-21T06:50:56.553Z,25.10
2023-03-21T06:51:56.535Z,24.40
2023-03-21T06:52:56.508Z,25.90
2023-03-21T06:53:56.487Z,21.60
2023-03-21T06:54:56.474Z,23.70
2023-03-21T06:55:56.434Z,21.80
2023-03-21T06:56:56.405Z,23.10
2023-03-21T06:57:56.379Z,23.60
2023-03-21T06:58:56.358Z,22.90
2023-03-21T06:59:56.325Z,24.90
2023-03-21T07:00:56.338Z,22.40
2023-03-21T07:01:56.277Z,21.00
2023-03-21T07:02:56.343Z,20.50
2023-03-21T07:03:56.248Z,27.60
2023-03-21T07:04:56.199Z,24.10
2023-03-21T07:05:56.180Z,23.60
2023-03-21T07:06:56.156Z,22.10
2023-03-21T07:07:56.128Z,20.90
2023-03-21T07:08:56.108Z,21.20
2023-03-21T07:09:56.080Z,24.00
2023-03-21T07:10:56.056Z,23.20
2023-03-21T07:11:56.042Z,22.60
2023-03-21T07:12:56.001Z,21.70
2023-03-21T07:13:55.984Z,22.90
2023-03-21T07:14:55.953Z,19.50
2023-03-21T07:15:55.928Z,20.00
2023-03-21T07:16:55.906Z,22.60
2023-03-21T07:17:55.883Z,24.40
2023-03-21T07:18:55.858Z,23.40
2023-03-21T07:19:55.855Z,23.00
2023-03-21T07:20:55.811Z,22.40
2023-03-21T07:21:55.816Z,25.90
2023-03-21T07:22:55.756Z,21.90
2023-03-21T07:23:55.740Z,20.10
2023-03-21T07:25:04.312Z,21.90
2023-03-21T07:25:55.777Z,23.20
2023-03-21T07:26:55.660Z,22.20
2023-03-21T07:27:55.643Z,23.70
2023-03-21T07:28:55.610Z,23.90
2023-03-21T07:29:55.585Z,25.90
2023-03-21T07:30:55.560Z,22.40
2023-03-21T07:31:55.578Z,21.40
2023-03-21T07:32:55.510Z,26.20
2023-03-21T07:33:55.486Z,26.00
2023-03-21T07:34:55.460Z,26.80
2023-03-21T07:35:55.542Z,21.70
2023-03-21T07:36:55.407Z,26.60
2023-03-21T07:37:55.391Z,24.50
2023-03-21T07:38:55.375Z,19.50
2023-03-21T07:39:55.333Z,19.80
2023-03-21T07:40:55.340Z,19.80
2023-03-21T07:41:55.286Z,25.90
2023-03-21T07:42:55.256Z,25.60
2023-03-21T07:43:55.237Z,26.10
2023-03-21T07:44:55.209Z,20.40
2023-03-21T07:45:55.274Z,22.80
2023-03-21T07:46:55.157Z,22.50
2023-03-21T07:47:55.140Z,23.80
2023-03-21T07:48:55.106Z,22.40
2023-03-21T07:49:55.107Z,24.50
2023-03-21T07:50:55.057Z,21.40
2023-03-21T07:51:55.064Z,22.50
2023-03-21T07:52:55.011Z,23.50
2023-03-21T07:53:54.986Z,21.50
2023-03-21T07:54:54.961Z,21.80
2023-03-21T07:55:54.940Z,23.40
2023-03-21T07:56:54.918Z,21.90
2023-03-21T07:57:54.889Z,23.50
2023-03-21T07:58:54.861Z,20.40
2023-03-21T07:59:54.943Z,27.30
2023-03-21T08:00:54.811Z,23.70
2023-03-21T08:01:54.876Z,23.50
2023-03-21T08:02:57.876Z,20.80
2023-03-21T08:03:54.829Z,22.20
2023-03-21T08:04:54.714Z,18.10
2023-03-21T08:05:54.696Z,23.20
2023-03-21T08:06:54.696Z,19.70
2023-03-21T08:07:54.667Z,20.80
2023-03-21T08:08:54.621Z,21.60
2023-03-21T08:09:54.593Z,21.10
2023-03-21T08:10:54.566Z,22.00
2023-03-21T08:11:54.545Z,22.30
2023-03-21T08:12:54.528Z,24.10
2023-03-21T08:13:54.499Z,22.40
2023-03-21T08:14:54.466Z,21.00
2023-03-21T08:15:54.454Z,21.70
2023-03-21T08:16:54.490Z,24.20
2023-03-21T08:17:54.433Z,24.60
2023-03-21T08:18:54.404Z,23.10
2023-03-21T08:19:54.343Z,25.40
2023-03-21T08:20:54.328Z,23.50
2023-03-21T08:21:54.296Z,24.00
2023-03-21T08:22:54.266Z,20.60
2023-03-21T08:23:54.269Z,21.70
2023-03-21T08:24:54.217Z,22.70
2023-03-21T08:25:54.196Z,23.40
2023-03-21T08:26:54.174Z,22.80
2023-03-21T08:27:54.144Z,21.00
2023-03-21T08:28:54.119Z,23.40
2023-03-21T08:29:54.098Z,21.30
2023-03-21T08:30:54.144Z,22.40
2023-03-21T08:31:54.047Z,21.00
2023-03-21T08:32:54.015Z,22.10
2023-03-21T08:33:54.013Z,20.20
2023-03-21T08:34:53.980Z,20.70
2023-03-21T08:35:53.973Z,21.40
2023-03-21T08:36:53.920Z,20.00
2023-03-21T08:37:53.899Z,20.60
2023-03-21T08:38:53.871Z,21.00
2023-03-21T08:39:53.920Z,24.80
2023-03-21T08:40:53.823Z,20.40
2023-03-21T08:41:53.799Z,24.00
2023-03-21T08:42:53.770Z,26.50
2023-03-21T08:43:53.752Z,22.90
2023-03-21T08:44:53.723Z,22.20
2023-03-21T08:45:53.710Z,23.00
2023-03-21T08:46:53.691Z,19.80
2023-03-21T08:47:53.722Z,23.40
2023-03-21T08:48:53.623Z,21.70
2023-03-21T08:49:53.602Z,22.10
2023-03-21T08:50:53.579Z,21.80
2023-03-21T08:51:53.550Z,20.90
2023-03-21T08:52:53.526Z,20.20
2023-03-21T08:53:53.500Z,24.50
2023-03-21T08:54:53.479Z,24.40
2023-03-21T08:55:53.487Z,21.20
2023-03-21T08:56:53.422Z,22.70
2023-03-21T08:57:53.408Z,22.70
2023-03-21T08:58:53.382Z,22.50
2023-03-21T08:59:53.358Z,23.60
2023-03-21T09:00:53.343Z,23.10
2023-03-21T09:01:53.357Z,23.80
2023-03-21T09:02:53.282Z,24.20
2023-03-21T09:03:53.261Z,22.80
2023-03-21T09:04:53.374Z,20.80
2023-03-21T09:05:53.208Z,19.80
2023-03-21T09:06:53.184Z,22.10
2023-03-21T09:07:53.179Z,20.10
2023-03-21T09:08:53.137Z,20.50
2023-03-21T09:10:08.121Z,21.40
2023-03-21T09:10:53.084Z,24.30
2023-03-21T09:11:53.080Z,20.60
2023-03-21T09:12:53.031Z,22.80
2023-03-21T09:13:53.012Z,22.60
2023-03-21T09:14:52.982Z,21.90
2023-03-21T09:15:53.037Z,21.90
2023-03-21T09:16:52.943Z,19.90
2023-03-21T09:17:53.333Z,20.10
2023-03-21T09:18:52.883Z,22.90
2023-03-21T09:19:52.855Z,20.80
2023-03-21T09:20:52.840Z,23.10
2023-03-21T09:21:52.803Z,22.90
2023-03-21T09:22:52.785Z,21.70
2023-03-21T09:23:52.770Z,22.50
2023-03-21T09:24:52.740Z,19.40
2023-03-21T09:25:52.708Z,21.90
2023-03-21T09:26:52.705Z,19.80
2023-03-21T09:27:52.693Z,24.70
2023-03-21T09:28:52.640Z,25.10
2023-03-21T09:29:52.613Z,20.70
2023-03-21T09:30:52.669Z,23.40
2023-03-21T09:31:52.556Z,22.40
2023-03-21T09:32:52.578Z,22.30
2023-03-21T09:33:52.550Z,21.50
2023-03-21T09:34:52.496Z,20.30
2023-03-21T09:35:52.473Z,22.10
2023-03-21T09:36:52.447Z,21.40
2023-03-21T09:37:52.620Z,19.60
2023-03-21T09:38:52.396Z,20.90
2023-03-21T09:39:52.371Z,23.30
2023-03-21T09:40:52.341Z,19.70
2023-03-21T09:41:52.312Z,20.40
2023-03-21T09:42:52.287Z,19.00
2023-03-21T09:43:52.285Z,20.60
2023-03-21T09:44:52.243Z,19.40
2023-03-21T09:45:52.215Z,17.80
2023-03-21T09:46:52.275Z,22.00
2023-03-21T09:47:52.231Z,17.30
2023-03-21T09:48:57.211Z,19.20
2023-03-21T09:49:54.667Z,21.20
2023-03-21T09:50:52.111Z,17.50
2023-03-21T09:51:52.077Z,20.50
2023-03-21T09:52:52.074Z,19.90
2023-03-21T09:53:52.025Z,17.60
2023-03-21T09:54:52.001Z,21.40
2023-03-21T09:55:52.017Z,21.00
2023-03-21T09:56:51.946Z,19.90
2023-03-21T09:57:51.920Z,19.30
2023-03-21T09:58:51.901Z,18.80
2023-03-21T09:59:51.890Z,21.00
2023-03-21T10:00:51.889Z,19.30
2023-03-21T10:01:51.840Z,21.20
2023-03-21T10:02:51.830Z,21.10
2023-03-21T10:03:51.769Z,20.90
2023-03-21T10:04:51.838Z,17.60
2023-03-21T10:05:51.721Z,19.80
2023-03-21T10:06:51.696Z,19.50
2023-03-21T10:07:51.671Z,20.20
2023-03-21T10:08:51.650Z,19.50
2023-03-21T10:09:51.624Z,21.20
2023-03-21T10:10:51.598Z,17.50
2023-03-21T10:11:51.574Z,19.30
2023-03-21T10:12:51.556Z,19.30
2023-03-21T10:13:51.528Z,18.10
2023-03-21T10:14:51.509Z,23.30
2023-03-21T10:15:51.521Z,20.80
2023-03-21T10:16:51.498Z,20.70
2023-03-21T10:17:51.423Z,19.70
2023-03-21T10:18:51.407Z,19.00
2023-03-21T10:19:51.375Z,19.20
2023-03-21T10:20:51.358Z,23.00
2023-03-21T10:22:00.686Z,22.10
2023-03-21T10:22:51.312Z,16.80
2023-03-21T10:23:51.288Z,20.70
2023-03-21T10:24:51.257Z,21.80
2023-03-21T10:25:51.274Z,19.70
2023-03-21T10:26:51.213Z,18.90
2023-03-21T10:27:51.177Z,23.30
2023-03-21T10:28:53.328Z,20.40
2023-03-21T10:29:51.136Z,19.20
2023-03-21T10:30:51.124Z,19.10
2023-03-21T10:31:51.206Z,17.70
2023-03-21T10:32:51.083Z,17.00
2023-03-21T10:33:51.037Z,22.30
2023-03-21T10:34:51.019Z,19.50
2023-03-21T10:35:51.004Z,18.00
2023-03-21T10:36:50.966Z,19.60
2023-03-21T10:37:50.931Z,18.90
2023-03-21T10:38:50.925Z,21.40
2023-03-21T10:39:50.888Z,16.40
2023-03-21T10:40:50.867Z,19.70
2023-03-21T10:41:50.835Z,19.90
2023-03-21T10:42:50.817Z,20.20
2023-03-21T10:43:50.792Z,20.80
2023-03-21T10:44:50.773Z,19.30
2023-03-21T10:45:50.977Z,19.50
2023-03-21T10:46:50.946Z,19.50
2023-03-21T10:47:51.004Z,18.80
2023-03-21T10:48:50.781Z,18.50
2023-03-21T10:50:06.830Z,17.00
2023-03-21T10:50:50.698Z,20.70
2023-03-21T10:51:50.596Z,19.90
2023-03-21T10:52:50.579Z,19.70
2023-03-21T10:53:50.549Z,21.20
2023-03-21T10:54:50.530Z,20.00
2023-03-21T10:55:50.505Z,18.80
2023-03-21T10:56:50.474Z,18.00
2023-03-21T10:57:50.452Z,22.50
2023-03-21T10:58:50.425Z,17.40
2023-03-21T10:59:50.403Z,18.90
2023-03-21T11:00:50.401Z,20.10
2023-03-21T11:01:50.355Z,19.70
2023-03-21T11:02:50.523Z,20.30
2023-03-21T11:03:50.331Z,18.30
2023-03-21T11:04:50.279Z,20.10
2023-03-21T11:05:50.263Z,19.60
2023-03-21T11:06:50.241Z,18.00
2023-03-21T11:07:50.209Z,19.00
2023-03-21T11:08:50.192Z,18.50
2023-03-21T11:09:53.517Z,19.30
2023-03-21T11:10:50.143Z,16.30
2023-03-21T11:11:50.112Z,21.10
2023-03-21T11:12:50.094Z,18.00
2023-03-21T11:13:50.066Z,17.50
2023-03-21T11:14:50.047Z,22.00
2023-03-21T11:15:50.018Z,17.70
2023-03-21T11:16:50.029Z,16.60
2023-03-21T11:17:49.971Z,18.70
2023-03-21T11:18:49.953Z,18.30
2023-03-21T11:19:49.946Z,17.20
2023-03-21T11:20:49.908Z,18.10
2023-03-21T11:21:49.876Z,21.00
2023-03-21T11:22:49.859Z,17.00
2023-03-21T11:23:49.824Z,18.50
2023-03-21T11:24:49.804Z,17.50
2023-03-21T11:25:49.788Z,18.70
2023-03-21T11:26:49.772Z,14.80
2023-03-21T11:27:49.732Z,18.80
2023-03-21T11:28:49.705Z,18.80
2023-03-21T11:29:49.678Z,17.10
2023-03-21T11:30:49.686Z,17.50
2023-03-21T11:31:49.634Z,18.70
2023-03-21T11:32:49.621Z,21.20
2023-03-21T11:33:49.583Z,19.00
2023-03-21T11:34:49.563Z,16.30
2023-03-21T11:35:49.629Z,17.50
2023-03-21T11:36:49.508Z,16.30
2023-03-21T11:37:49.490Z,18.90
2023-03-21T11:38:49.461Z,17.30
2023-03-21T11:39:49.438Z,15.50
2023-03-21T11:40:49.414Z,19.80
2023-03-21T11:41:49.390Z,16.40
2023-03-21T11:42:49.370Z,17.00
2023-03-21T11:43:49.347Z,16.40
2023-03-21T11:44:49.318Z,19.00
2023-03-21T11:45:49.318Z,18.40
2023-03-21T11:46:49.268Z,16.10
2023-03-21T11:47:49.332Z,15.70
2023-03-21T11:48:49.223Z,16.90
2023-03-21T11:49:51.325Z,16.80
2023-03-21T11:50:49.175Z,15.40
2023-03-21T11:51:49.167Z,16.60
2023-03-21T11:52:49.122Z,16.80
2023-03-21T11:53:49.099Z,17.70
2023-03-21T11:54:49.072Z,18.40
2023-03-21T11:55:49.047Z,18.50
2023-03-21T11:56:49.027Z,17.00
2023-03-21T11:57:49.001Z,18.50
2023-03-21T11:58:49.001Z,18.80
2023-03-21T11:59:48.950Z,16.80
2023-03-21T12:00:48.932Z,16.50
2023-03-21T12:01:48.904Z,16.50
2023-03-21T12:02:48.931Z,19.20
2023-03-21T12:03:49.348Z,20.00
2023-03-21T12:04:48.842Z,17.10
2023-03-21T12:05:48.812Z,15.90
2023-03-21T12:06:48.799Z,16.90
2023-03-21T12:07:48.786Z,19.10
2023-03-21T12:08:48.738Z,16.40
2023-03-21T12:09:48.709Z,15.50
2023-03-21T12:10:48.688Z,18.60
2023-03-21T12:11:48.663Z,16.70
2023-03-21T12:12:48.643Z,17.70
2023-03-21T12:13:48.626Z,17.10
2023-03-21T12:14:48.609Z,17.90
2023-03-21T12:15:48.588Z,16.20
2023-03-21T12:16:48.548Z,19.10
2023-03-21T12:17:48.517Z,18.10
2023-03-21T12:18:48.496Z,16.50
2023-03-21T12:19:48.460Z,17.90
2023-03-21T12:20:48.446Z,19.50
2023-03-21T12:21:48.418Z,18.60
2023-03-21T12:22:48.405Z,18.80
2023-03-21T12:23:48.427Z,16.70
2023-03-21T12:24:48.348Z,17.20
2023-03-21T12:25:48.333Z,17.10
2023-03-21T12:26:48.306Z,19.30
2023-03-21T12:27:48.283Z,17.70
2023-03-21T12:28:48.254Z,17.60
2023-03-21T12:29:48.216Z,16.60
2023-03-21T12:30:48.222Z,18.70
2023-03-21T12:31:48.226Z,17.50
2023-03-21T12:32:48.156Z,16.50
2023-03-21T12:33:48.131Z,17.80
2023-03-21T12:34:48.104Z,15.90
2023-03-21T12:35:48.174Z,18.30
2023-03-21T12:36:48.060Z,15.20
2023-03-21T12:37:48.029Z,15.40
2023-03-21T12:38:48.005Z,16.90
2023-03-21T12:39:48.105Z,17.70
2023-03-21T12:40:47.962Z,15.80
2023-03-21T12:41:47.932Z,14.70
2023-03-21T12:42:47.914Z,14.60
2023-03-21T12:43:47.881Z,13.90
2023-03-21T12:44:47.870Z,14.40
2023-03-21T12:45:48.004Z,12.00
2023-03-21T12:46:47.914Z,14.10
2023-03-21T12:47:47.829Z,15.00
2023-03-21T12:48:47.778Z,11.60
2023-03-21T12:49:47.737Z,17.80
2023-03-21T12:50:47.732Z,13.30
2023-03-21T12:51:47.682Z,14.90